Tampa, Florida
Traffic Map
Current Weather Conditions
Tampa, Florida
Scattered Clouds
Scattered Clouds
32°
Feels Like: 33°
Wind Chill: 32° Ceiling: Unl
Heat Index: 33° Visibility: 10mi
Dew Point: 17° Wind: 5mph
Humidity: 40% Direction: ° ()
Pressure: 30.09in Gusts: 0mph
Raw Report DataKTPA 272053Z VRB04KT 10SM SCT055TCU SCT300 32/17 A3009 RMK AO2 SLP189 TCU NW-E T03220172 58021
Traffic Incident Summary
Active as of:
Severity:
Category:
InformationThere was an issue retrieving the traffic information for this location. Please try a different location or try again shortly.
Advertisements
Track Severe Weather on mobile